Time;durP1;ratioP1;P1;durP2;ratioP2;P2;SDS_P1;SDS_P2;PMS_P1;PMS_P2;Temp;Humidity;BMP_temperature;BMP_pressure;BME280_temperature;BME280_humidity;BME280_pressure;Samples;Min_cycle;Max_cycle;Signal;HPM_P1;HPM_P2
2022/05/17 00:01:53;;;;;;;23.77;8.85;;;;;;;;;;5010681;28;20053;-63
2022/05/17 00:04:20;;;;;;;23.20;9.40;;;;;;;;;;5008953;28;20041;-64
2022/05/17 00:06:46;;;;;;;33.03;9.25;;;;;;;;;;5011210;28;20049;-63
2022/05/17 00:09:16;;;;;;;33.70;11.68;;;;;;;;;;5010640;28;20557;-64
2022/05/17 00:11:43;;;;;;;28.23;11.70;;;;;;;;;;5010035;28;20458;-64
2022/05/17 00:14:10;;;;;;;33.35;10.75;;;;;;;;;;5010045;28;20115;-64
2022/05/17 00:16:36;;;;;;;26.27;10.77;;;;;;;;;;5009804;28;20026;-63
2022/05/17 00:19:02;;;;;;;23.02;10.05;;;;;;;;;;5012406;28;20187;-63
2022/05/17 00:21:28;;;;;;;31.67;9.65;;;;;;;;;;5013636;28;20046;-64
2022/05/17 00:23:54;;;;;;;28.52;10.63;;;;;;;;;;5015138;28;20060;-63
2022/05/17 00:26:21;;;;;;;22.70;9.95;;;;;;;;;;5020786;28;20080;-63
2022/05/17 00:28:47;;;;;;;28.58;9.93;;;;;;;;;;5014597;28;20976;-64
2022/05/17 00:31:13;;;;;;;28.17;10.63;;;;;;;;;;5017680;28;20480;-64
2022/05/17 00:33:39;;;;;;;29.30;10.63;;;;;;;;;;5017238;28;20378;-64
2022/05/17 00:36:06;;;;;;;21.88;10.77;;;;;;;;;;5011694;28;20325;-64
2022/05/17 00:38:32;;;;;;;20.90;10.57;;;;;;;;;;5014668;28;20096;-64
2022/05/17 00:40:59;;;;;;;28.65;10.77;;;;;;;;;;5012894;28;20053;-64
2022/05/17 00:46:22;;;;;;;23.92;10.00;;;;;;;;;;5016786;28;20053;-64
2022/05/17 00:48:49;;;;;;;23.05;9.82;;;;;;;;;;5010902;28;20038;-64
2022/05/17 00:51:15;;;;;;;27.25;10.23;;;;;;;;;;5013594;28;20080;-64
2022/05/17 00:53:42;;;;;;;24.38;9.98;;;;;;;;;;5001555;28;20507;-64
2022/05/17 00:56:11;;;;;;;20.48;9.43;;;;;;;;;;5016922;28;20132;-64
2022/05/17 00:58:41;;;;;;;21.63;9.20;;;;;;;;;;5013456;28;20075;-64
2022/05/17 01:01:10;;;;;;;27.23;10.82;;;;;;;;;;5015910;28;20042;-64
2022/05/17 01:03:40;;;;;;;25.77;9.65;;;;;;;;;;5016089;28;20489;-64
2022/05/17 01:06:07;;;;;;;27.40;11.18;;;;;;;;;;5014801;28;20034;-64
2022/05/17 01:08:33;;;;;;;25.20;11.30;;;;;;;;;;5019051;28;20041;-64
2022/05/17 01:10:59;;;;;;;32.50;11.30;;;;;;;;;;4996280;28;20050;-64
2022/05/17 01:16:11;;;;;;;28.75;10.90;;;;;;;;;;5007365;28;20117;-64
2022/05/17 01:18:39;;;;;;;27.40;11.07;;;;;;;;;;5001670;28;20482;-64
2022/05/17 01:21:06;;;;;;;29.23;11.45;;;;;;;;;;5013514;28;20049;-64
2022/05/17 01:23:32;;;;;;;26.65;10.93;;;;;;;;;;5011055;28;20163;-63
2022/05/17 01:25:58;;;;;;;26.23;10.63;;;;;;;;;;5001735;28;20342;-64
2022/05/17 01:28:26;;;;;;;34.05;11.52;;;;;;;;;;5017514;28;20120;-64
2022/05/17 01:30:52;;;;;;;25.98;11.35;;;;;;;;;;5010320;28;20041;-64
2022/05/17 01:33:20;;;;;;;26.42;10.55;;;;;;;;;;5014157;28;20048;-64
2022/05/17 01:35:47;;;;;;;29.77;11.57;;;;;;;;;;5015323;28;20338;-64
2022/05/17 01:38:14;;;;;;;29.50;10.45;;;;;;;;;;5012827;28;20042;-64
2022/05/17 01:40:40;;;;;;;27.15;11.02;;;;;;;;;;5011429;28;20123;-64
2022/05/17 01:43:07;;;;;;;25.65;10.27;;;;;;;;;;5011646;28;20034;-64
2022/05/17 01:45:33;;;;;;;28.45;9.82;;;;;;;;;;5014935;28;20042;-64
2022/05/17 01:47:59;;;;;;;27.38;10.95;;;;;;;;;;5010009;28;20363;-63
2022/05/17 01:50:26;;;;;;;26.85;10.93;;;;;;;;;;5010821;28;20026;-64
2022/05/17 01:52:52;;;;;;;26.00;10.80;;;;;;;;;;5014560;28;20053;-64
2022/05/17 01:55:18;;;;;;;34.20;11.25;;;;;;;;;;5013018;28;20120;-64
2022/05/17 01:57:44;;;;;;;29.05;11.63;;;;;;;;;;5011792;28;20130;-64
2022/05/17 02:00:13;;;;;;;33.00;11.30;;;;;;;;;;4998912;28;20053;-64
2022/05/17 02:02:39;;;;;;;35.85;11.77;;;;;;;;;;5011531;28;20041;-64
2022/05/17 02:05:06;;;;;;;32.92;11.02;;;;;;;;;;5019218;28;20100;-64
2022/05/17 02:07:32;;;;;;;31.42;12.10;;;;;;;;;;5011701;28;20045;-63
2022/05/17 02:09:58;;;;;;;28.80;11.15;;;;;;;;;;5015539;28;20365;-63
2022/05/17 02:12:24;;;;;;;26.48;11.40;;;;;;;;;;5012491;28;20510;-64
2022/05/17 02:14:50;;;;;;;29.20;11.80;;;;;;;;;;5009826;28;20046;-64
2022/05/17 02:17:17;;;;;;;30.20;12.02;;;;;;;;;;5015341;28;20156;-63
2022/05/17 02:19:43;;;;;;;33.22;12.13;;;;;;;;;;5012159;28;20060;-64
2022/05/17 02:22:11;;;;;;;31.55;11.95;;;;;;;;;;5011064;28;20128;-64
2022/05/17 02:24:37;;;;;;;25.90;11.45;;;;;;;;;;5008198;28;20104;-63
2022/05/17 02:27:03;;;;;;;29.60;10.93;;;;;;;;;;5002998;28;20033;-64
2022/05/17 02:29:30;;;;;;;28.45;11.27;;;;;;;;;;5012958;28;20042;-64
2022/05/17 02:31:56;;;;;;;27.25;9.98;;;;;;;;;;5010454;28;20053;-64
2022/05/17 02:34:23;;;;;;;20.15;11.60;;;;;;;;;;5017686;28;20054;-64
2022/05/17 02:36:49;;;;;;;32.00;12.35;;;;;;;;;;5003466;28;20175;-64
2022/05/17 02:39:15;;;;;;;33.72;12.25;;;;;;;;;;5012396;28;20038;-64
2022/05/17 02:41:41;;;;;;;36.83;12.40;;;;;;;;;;5011788;28;20127;-63
2022/05/17 02:44:07;;;;;;;29.33;11.88;;;;;;;;;;5016044;28;20077;-64
2022/05/17 02:46:34;;;;;;;37.08;11.68;;;;;;;;;;5013891;28;20045;-64
2022/05/17 02:49:04;;;;;;;29.67;11.07;;;;;;;;;;5016210;28;20120;-64
2022/05/17 02:51:30;;;;;;;23.90;10.82;;;;;;;;;;5015984;28;20132;-64
2022/05/17 02:53:56;;;;;;;27.75;14.15;;;;;;;;;;5011472;28;20061;-64
2022/05/17 02:56:23;;;;;;;27.55;11.45;;;;;;;;;;5010303;28;20053;-64
2022/05/17 02:58:49;;;;;;;30.58;12.05;;;;;;;;;;5012383;28;20374;-64
2022/05/17 03:01:15;;;;;;;22.88;12.50;;;;;;;;;;5010351;28;20501;-64
2022/05/17 03:03:42;;;;;;;25.15;11.98;;;;;;;;;;5008902;28;20502;-64
2022/05/17 03:06:09;;;;;;;29.75;13.40;;;;;;;;;;5007853;28;20167;-64
2022/05/17 03:08:35;;;;;;;31.17;12.85;;;;;;;;;;5011796;28;20049;-64
2022/05/17 03:11:02;;;;;;;28.05;11.82;;;;;;;;;;5001676;28;20385;-64
2022/05/17 03:13:28;;;;;;;29.23;11.32;;;;;;;;;;5013608;28;20057;-64
2022/05/17 03:15:54;;;;;;;28.63;12.43;;;;;;;;;;5002948;28;20054;-64
2022/05/17 03:18:20;;;;;;;30.45;13.20;;;;;;;;;;5001545;28;20382;-64
2022/05/17 03:20:48;;;;;;;31.25;11.82;;;;;;;;;;5014350;28;20573;-64
2022/05/17 03:23:15;;;;;;;27.02;10.85;;;;;;;;;;5008267;28;20046;-63
2022/05/17 03:25:41;;;;;;;29.15;11.48;;;;;;;;;;5012486;28;20124;-64
2022/05/17 03:28:07;;;;;;;28.20;12.35;;;;;;;;;;5014400;28;20084;-64
2022/05/17 03:30:34;;;;;;;27.05;11.95;;;;;;;;;;5009810;28;20099;-64
2022/05/17 03:33:00;;;;;;;25.70;10.90;;;;;;;;;;5011036;28;20077;-64
2022/05/17 03:35:26;;;;;;;27.40;11.50;;;;;;;;;;5010142;28;20061;-64
2022/05/17 03:37:52;;;;;;;21.20;10.20;;;;;;;;;;5008444;28;20060;-64
2022/05/17 03:40:19;;;;;;;24.73;11.32;;;;;;;;;;5009719;28;20040;-64
2022/05/17 03:42:45;;;;;;;27.25;11.77;;;;;;;;;;5013051;28;20048;-64
2022/05/17 03:45:12;;;;;;;30.10;11.25;;;;;;;;;;5011479;28;20473;-64
2022/05/17 03:47:38;;;;;;;26.67;11.50;;;;;;;;;;5013733;28;20374;-64
2022/05/17 03:50:05;;;;;;;24.02;10.48;;;;;;;;;;5011100;28;20038;-64
2022/05/17 03:52:32;;;;;;;26.15;11.70;;;;;;;;;;5009594;28;20473;-64
2022/05/17 03:54:59;;;;;;;27.27;11.45;;;;;;;;;;5016020;28;20073;-64
2022/05/17 03:57:27;;;;;;;22.70;10.55;;;;;;;;;;5019003;28;20065;-64
2022/05/17 03:59:53;;;;;;;26.27;11.35;;;;;;;;;;5014968;28;20061;-64
2022/05/17 04:02:19;;;;;;;25.10;12.07;;;;;;;;;;5017415;28;20046;-64
2022/05/17 04:04:46;;;;;;;30.02;11.82;;;;;;;;;;5017582;28;20070;-64
2022/05/17 04:07:12;;;;;;;25.17;10.43;;;;;;;;;;5000326;28;20057;-64
2022/05/17 04:09:39;;;;;;;27.73;10.88;;;;;;;;;;5005167;28;20179;-64
2022/05/17 04:12:06;;;;;;;34.45;11.38;;;;;;;;;;5018589;28;20050;-64
2022/05/17 04:14:32;;;;;;;28.42;12.30;;;;;;;;;;5026250;28;20124;-64
2022/05/17 04:16:58;;;;;;;27.50;12.18;;;;;;;;;;5017092;28;20412;-64
2022/05/17 04:19:24;;;;;;;30.75;11.38;;;;;;;;;;5004619;28;20537;-64
2022/05/17 04:21:50;;;;;;;29.88;10.30;;;;;;;;;;5015933;28;20104;-64
2022/05/17 04:24:16;;;;;;;27.30;10.35;;;;;;;;;;5017191;28;20052;-64
2022/05/17 04:26:43;;;;;;;24.55;10.93;;;;;;;;;;5015297;28;20124;-64
2022/05/17 04:29:09;;;;;;;19.80;9.55;;;;;;;;;;5019408;28;20042;-64
2022/05/17 04:31:36;;;;;;;28.63;11.60;;;;;;;;;;5014765;28;20734;-63
2022/05/17 04:34:03;;;;;;;20.67;9.43;;;;;;;;;;5016281;28;20465;-64
2022/05/17 04:36:29;;;;;;;25.80;10.80;;;;;;;;;;5002410;28;20094;-64
2022/05/17 04:38:56;;;;;;;23.77;10.45;;;;;;;;;;5014896;28;20041;-63
2022/05/17 04:41:22;;;;;;;22.38;9.48;;;;;;;;;;5015932;28;20148;-64
2022/05/17 04:43:49;;;;;;;28.55;9.70;;;;;;;;;;5017166;28;20059;-64
2022/05/17 04:46:15;;;;;;;24.00;10.65;;;;;;;;;;5018769;28;20112;-64
2022/05/17 04:48:41;;;;;;;23.50;9.07;;;;;;;;;;5016091;28;20053;-64
2022/05/17 04:51:09;;;;;;;29.92;8.98;;;;;;;;;;5016829;28;20049;-65
2022/05/17 04:53:36;;;;;;;24.63;9.70;;;;;;;;;;5018677;28;20037;-65
2022/05/17 04:56:04;;;;;;;22.95;9.63;;;;;;;;;;5007033;28;20516;-65
2022/05/17 04:58:30;;;;;;;23.60;9.52;;;;;;;;;;5018341;28;20056;-64
2022/05/17 05:00:56;;;;;;;21.83;9.02;;;;;;;;;;5017551;28;20126;-64
2022/05/17 05:03:22;;;;;;;25.17;9.02;;;;;;;;;;5017869;28;20050;-64
2022/05/17 05:05:49;;;;;;;22.15;9.50;;;;;;;;;;5000296;28;20117;-64
2022/05/17 05:08:15;;;;;;;28.23;10.05;;;;;;;;;;4999694;28;20048;-64
2022/05/17 05:10:42;;;;;;;23.48;9.25;;;;;;;;;;5012248;28;20050;-64
2022/05/17 05:13:12;;;;;;;23.98;10.57;;;;;;;;;;5011511;28;20045;-64
2022/05/17 05:15:38;;;;;;;19.38;8.85;;;;;;;;;;5012828;28;20052;-65
2022/05/17 05:18:04;;;;;;;26.65;9.55;;;;;;;;;;5001709;28;20188;-65
2022/05/17 05:20:30;;;;;;;23.55;9.38;;;;;;;;;;5012869;28;20500;-65
2022/05/17 05:22:57;;;;;;;29.02;10.07;;;;;;;;;;5010879;28;20049;-65
2022/05/17 05:25:23;;;;;;;27.95;10.25;;;;;;;;;;5017442;28;20038;-65
2022/05/17 05:27:49;;;;;;;25.55;9.85;;;;;;;;;;5020071;28;20148;-64
2022/05/17 05:30:16;;;;;;;30.30;10.38;;;;;;;;;;5018028;28;20049;-65
2022/05/17 05:32:43;;;;;;;36.42;9.45;;;;;;;;;;5017252;28;20100;-65
2022/05/17 05:35:10;;;;;;;30.98;9.18;;;;;;;;;;4999935;28;20052;-65
2022/05/17 05:37:37;;;;;;;27.13;8.55;;;;;;;;;;5011800;28;20351;-65
2022/05/17 05:40:03;;;;;;;28.98;8.25;;;;;;;;;;5012289;28;20437;-65
2022/05/17 05:42:29;;;;;;;25.88;8.35;;;;;;;;;;5017195;28;20099;-65
2022/05/17 05:44:56;;;;;;;24.35;8.40;;;;;;;;;;5012177;28;20042;-65
2022/05/17 05:47:22;;;;;;;29.73;7.75;;;;;;;;;;5013762;28;20458;-65
2022/05/17 05:49:48;;;;;;;26.25;8.00;;;;;;;;;;5013437;28;20563;-64
2022/05/17 05:52:14;;;;;;;25.23;7.32;;;;;;;;;;5012446;28;20096;-64
2022/05/17 05:54:41;;;;;;;20.35;7.18;;;;;;;;;;5011918;28;20057;-65
2022/05/17 05:57:08;;;;;;;26.15;7.22;;;;;;;;;;5019921;28;20124;-65
2022/05/17 05:59:34;;;;;;;31.40;7.28;;;;;;;;;;5012557;28;20050;-65
2022/05/17 06:02:00;;;;;;;24.40;6.53;;;;;;;;;;4999930;28;20553;-65
2022/05/17 06:04:28;;;;;;;29.90;7.70;;;;;;;;;;5011636;28;20037;-65
2022/05/17 06:06:56;;;;;;;20.30;6.18;;;;;;;;;;5014625;28;20522;-65
2022/05/17 06:09:22;;;;;;;26.52;7.68;;;;;;;;;;5008347;28;20067;-64
2022/05/17 06:11:48;;;;;;;28.02;7.55;;;;;;;;;;4998627;28;20050;-64
2022/05/17 06:14:14;;;;;;;29.83;9.38;;;;;;;;;;5012337;28;20077;-65
2022/05/17 06:16:41;;;;;;;27.33;7.40;;;;;;;;;;5007648;28;20100;-65
2022/05/17 06:19:07;;;;;;;23.27;7.28;;;;;;;;;;5015586;28;20054;-65
2022/05/17 06:21:33;;;;;;;20.85;7.35;;;;;;;;;;5013149;28;20123;-65
2022/05/17 06:23:59;;;;;;;25.75;8.25;;;;;;;;;;5013452;28;20129;-64
2022/05/17 06:26:26;;;;;;;26.50;7.72;;;;;;;;;;5012509;28;20544;-65
2022/05/17 06:28:52;;;;;;;31.50;8.85;;;;;;;;;;5012761;28;21908;-65
2022/05/17 06:31:18;;;;;;;22.67;7.80;;;;;;;;;;4995494;28;20072;-64
2022/05/17 06:33:44;;;;;;;24.45;8.00;;;;;;;;;;5010722;28;20056;-65
2022/05/17 06:36:10;;;;;;;24.65;7.30;;;;;;;;;;4996967;28;20129;-64
2022/05/17 06:38:36;;;;;;;21.63;7.88;;;;;;;;;;5008843;28;20049;-64
2022/05/17 06:41:04;;;;;;;23.58;6.68;;;;;;;;;;5017503;28;20095;-65
2022/05/17 06:43:30;;;;;;;21.40;6.43;;;;;;;;;;5033178;28;20118;-65
2022/05/17 06:45:56;;;;;;;26.15;6.63;;;;;;;;;;5011969;28;20049;-65
2022/05/17 06:48:22;;;;;;;24.40;6.68;;;;;;;;;;5011684;28;20104;-65
2022/05/17 06:50:49;;;;;;;19.55;6.00;;;;;;;;;;5013025;28;20054;-65
2022/05/17 06:53:15;;;;;;;20.05;6.00;;;;;;;;;;5026125;28;20045;-65
2022/05/17 06:55:41;;;;;;;20.55;6.57;;;;;;;;;;5012976;28;20128;-65
2022/05/17 06:58:07;;;;;;;20.42;6.55;;;;;;;;;;5014502;28;20053;-64
2022/05/17 07:00:34;;;;;;;23.67;6.72;;;;;;;;;;4997225;28;20526;-65
2022/05/17 07:03:00;;;;;;;21.08;6.13;;;;;;;;;;5026676;28;20053;-65
2022/05/17 07:05:27;;;;;;;18.40;6.47;;;;;;;;;;5027356;28;20060;-65
2022/05/17 07:07:54;;;;;;;25.17;7.88;;;;;;;;;;5027834;28;20049;-64
2022/05/17 07:13:07;;;;;;;23.55;6.32;;;;;;;;;;5012370;28;20086;-65
2022/05/17 07:15:34;;;;;;;23.55;6.65;;;;;;;;;;5011275;28;20073;-65
2022/05/17 07:18:00;;;;;;;22.10;5.95;;;;;;;;;;5011637;28;20486;-65
2022/05/17 07:20:27;;;;;;;25.38;5.57;;;;;;;;;;5006846;28;20045;-64
2022/05/17 07:22:53;;;;;;;19.15;4.88;;;;;;;;;;5010933;28;20125;-64
2022/05/17 07:25:19;;;;;;;16.80;5.43;;;;;;;;;;5012815;28;20049;-65
2022/05/17 07:27:46;;;;;;;19.35;5.35;;;;;;;;;;5011939;28;20046;-65
2022/05/17 07:30:12;;;;;;;20.27;5.38;;;;;;;;;;5011342;28;20485;-65
2022/05/17 07:32:39;;;;;;;19.33;5.30;;;;;;;;;;5011287;28;20050;-64
2022/05/17 07:35:07;;;;;;;16.92;5.40;;;;;;;;;;5010467;28;20060;-65
2022/05/17 07:37:33;;;;;;;17.50;4.65;;;;;;;;;;5012169;28;20042;-65
2022/05/17 07:39:59;;;;;;;27.02;5.10;;;;;;;;;;5012246;28;20073;-65
2022/05/17 07:42:26;;;;;;;20.60;5.88;;;;;;;;;;5012619;28;20075;-65
2022/05/17 07:44:52;;;;;;;22.25;5.25;;;;;;;;;;5011862;28;20172;-65
2022/05/17 07:47:18;;;;;;;20.70;6.10;;;;;;;;;;5011354;28;20044;-66
2022/05/17 07:49:44;;;;;;;15.82;4.80;;;;;;;;;;5011261;28;20068;-65
2022/05/17 07:52:12;;;;;;;18.92;5.70;;;;;;;;;;5011480;28;20030;-65
2022/05/17 07:54:38;;;;;;;20.55;5.82;;;;;;;;;;4996872;28;20049;-65
2022/05/17 07:57:05;;;;;;;21.02;5.57;;;;;;;;;;5011168;28;20042;-65
2022/05/17 07:59:31;;;;;;;21.33;5.75;;;;;;;;;;5010476;28;20046;-65
2022/05/17 08:01:57;;;;;;;17.35;5.15;;;;;;;;;;5011845;28;20121;-65
2022/05/17 08:04:23;;;;;;;17.73;5.63;;;;;;;;;;5011487;28;20061;-65
2022/05/17 08:06:50;;;;;;;22.05;5.68;;;;;;;;;;5011156;28;20121;-65
2022/05/17 08:09:17;;;;;;;17.38;4.88;;;;;;;;;;5000314;28;20494;-65
2022/05/17 08:11:43;;;;;;;15.57;5.50;;;;;;;;;;5004435;28;20406;-65
2022/05/17 08:14:09;;;;;;;20.60;5.22;;;;;;;;;;5011305;28;20507;-65
2022/05/17 08:16:35;;;;;;;19.00;5.47;;;;;;;;;;5010264;28;20038;-65
2022/05/17 08:19:01;;;;;;;16.35;5.32;;;;;;;;;;5002675;28;20235;-65
2022/05/17 08:21:27;;;;;;;22.10;5.03;;;;;;;;;;5011700;28;20066;-65
2022/05/17 08:23:53;;;;;;;18.30;5.05;;;;;;;;;;5010882;28;20081;-65
2022/05/17 08:29:05;;;;;;;17.38;4.85;;;;;;;;;;5011449;28;20066;-65
2022/05/17 08:31:31;;;;;;;18.80;5.15;;;;;;;;;;5011671;28;20041;-65
2022/05/17 08:33:57;;;;;;;21.85;5.93;;;;;;;;;;5009711;28;20048;-65
2022/05/17 08:36:23;;;;;;;17.00;4.47;;;;;;;;;;5011839;28;20070;-65
2022/05/17 08:38:50;;;;;;;18.75;4.45;;;;;;;;;;5011799;28;20440;-65
2022/05/17 08:41:16;;;;;;;19.27;4.80;;;;;;;;;;5013596;28;20090;-65
2022/05/17 08:43:49;;;;;;;19.05;4.55;;;;;;;;;;5014590;28;20080;-65
2022/05/17 08:46:26;;;;;;;16.98;4.40;;;;;;;;;;5015374;28;20096;-65
2022/05/17 08:48:55;;;;;;;16.45;3.83;;;;;;;;;;5014680;28;20115;-65
2022/05/17 08:51:26;;;;;;;19.27;4.28;;;;;;;;;;5013552;28;20482;-65
2022/05/17 08:53:52;;;;;;;12.75;3.60;;;;;;;;;;5013988;28;20042;-65
2022/05/17 08:56:19;;;;;;;19.55;4.45;;;;;;;;;;5014729;28;20041;-65
2022/05/17 08:58:48;;;;;;;16.45;5.20;;;;;;;;;;5014947;28;20050;-65
2022/05/17 09:01:20;;;;;;;14.77;4.28;;;;;;;;;;5013718;28;20391;-65
2022/05/17 09:03:56;;;;;;;17.33;4.30;;;;;;;;;;5013949;28;20045;-65
2022/05/17 09:06:28;;;;;;;17.95;4.18;;;;;;;;;;5013874;28;20640;-65
2022/05/17 09:09:03;;;;;;;20.48;4.47;;;;;;;;;;5014531;28;20133;-65
2022/05/17 09:11:35;;;;;;;11.55;3.47;;;;;;;;;;5001895;28;20528;-65
2022/05/17 09:14:05;;;;;;;10.68;2.70;;;;;;;;;;5014213;28;20517;-65
2022/05/17 09:16:33;;;;;;;16.50;4.07;;;;;;;;;;5013218;28;20485;-65
2022/05/17 09:18:59;;;;;;;14.52;3.25;;;;;;;;;;5013787;28;20048;-65
2022/05/17 09:21:27;;;;;;;20.13;4.00;;;;;;;;;;5013491;28;20041;-65
2022/05/17 09:23:54;;;;;;;11.82;3.38;;;;;;;;;;5013768;28;20555;-65
2022/05/17 09:26:20;;;;;;;11.95;3.10;;;;;;;;;;5003561;28;20477;-65
2022/05/17 09:28:49;;;;;;;10.00;2.10;;;;;;;;;;5013427;28;20379;-65
2022/05/17 09:31:17;;;;;;;11.00;2.83;;;;;;;;;;5013406;28;20067;-65
2022/05/17 09:33:44;;;;;;;14.98;3.55;;;;;;;;;;4995139;28;20088;-65
2022/05/17 09:36:17;;;;;;;14.20;2.78;;;;;;;;;;5013639;28;20173;-65
2022/05/17 09:38:43;;;;;;;13.18;3.20;;;;;;;;;;5011019;28;20053;-65
2022/05/17 09:41:11;;;;;;;11.57;2.60;;;;;;;;;;5013254;28;20034;-65
2022/05/17 09:43:38;;;;;;;14.90;3.38;;;;;;;;;;5009257;28;20045;-65
2022/05/17 09:46:14;;;;;;;12.63;3.15;;;;;;;;;;5013503;28;20060;-65
2022/05/17 09:54:29;;;;;;;11.88;2.75;;;;;;;;;;5012476;28;20481;-65
2022/05/17 09:57:10;;;;;;;9.75;2.80;;;;;;;;;;5014714;28;20556;-65
2022/05/17 09:59:37;;;;;;;12.50;2.70;;;;;;;;;;5014031;28;20033;-65
2022/05/17 10:02:03;;;;;;;10.68;2.95;;;;;;;;;;5013206;28;20053;-65
2022/05/17 10:04:30;;;;;;;13.20;3.78;;;;;;;;;;5012322;28;20177;-65
2022/05/17 10:06:56;;;;;;;8.95;2.53;;;;;;;;;;5015664;28;20049;-65
2022/05/17 10:09:30;;;;;;;9.32;2.40;;;;;;;;;;5013607;28;20041;-65
2022/05/17 10:12:04;;;;;;;11.82;2.67;;;;;;;;;;5004690;28;20079;-65
2022/05/17 10:14:34;;;;;;;11.30;2.63;;;;;;;;;;5013557;28;20507;-65
2022/05/17 10:17:02;;;;;;;9.07;2.75;;;;;;;;;;5012657;28;20046;-65
2022/05/17 10:19:37;;;;;;;9.63;2.15;;;;;;;;;;5013193;28;20049;-65
2022/05/17 10:22:11;;;;;;;8.35;2.13;;;;;;;;;;5007005;28;20045;-65
2022/05/17 10:24:48;;;;;;;9.90;2.28;;;;;;;;;;5012713;28;20046;-66
2022/05/17 10:27:18;;;;;;;12.32;2.30;;;;;;;;;;5011997;28;20054;-65
2022/05/17 10:29:52;;;;;;;10.43;2.30;;;;;;;;;;5012851;28;20445;-66
2022/05/17 10:32:22;;;;;;;7.40;2.05;;;;;;;;;;5013924;28;20082;-65
2022/05/17 10:34:53;;;;;;;11.52;2.80;;;;;;;;;;5012655;28;20085;-63
2022/05/17 10:37:21;;;;;;;8.93;2.03;;;;;;;;;;5014503;28;20042;-63
2022/05/17 10:39:48;;;;;;;10.05;2.67;;;;;;;;;;5012237;28;20049;-63
2022/05/17 10:42:15;;;;;;;7.20;2.10;;;;;;;;;;5012921;28;20037;-63
2022/05/17 10:44:43;;;;;;;9.60;2.00;;;;;;;;;;5013170;28;20406;-63
2022/05/17 10:47:14;;;;;;;8.23;1.95;;;;;;;;;;5011726;28;20044;-63
2022/05/17 10:49:40;;;;;;;8.70;2.17;;;;;;;;;;5005741;28;20202;-63
2022/05/17 10:52:15;;;;;;;9.95;2.60;;;;;;;;;;5011197;28;20172;-63
2022/05/17 10:54:48;;;;;;;6.78;2.20;;;;;;;;;;5014716;28;20115;-63
2022/05/17 10:57:21;;;;;;;8.93;2.28;;;;;;;;;;5012541;28;20098;-63
2022/05/17 10:59:54;;;;;;;8.60;2.33;;;;;;;;;;5012355;28;20038;-63
2022/05/17 11:02:36;;;;;;;9.85;1.98;;;;;;;;;;4993235;28;20111;-63
2022/05/17 11:05:08;;;;;;;8.45;2.72;;;;;;;;;;4997033;28;20065;-63
2022/05/17 11:07:51;;;;;;;10.10;2.65;;;;;;;;;;5010990;28;20129;-63
2022/05/17 11:10:17;;;;;;;7.05;1.83;;;;;;;;;;5011780;28;20109;-64
2022/05/17 11:12:51;;;;;;;8.30;2.50;;;;;;;;;;5011683;28;20042;-63
2022/05/17 11:15:21;;;;;;;10.73;2.92;;;;;;;;;;5013582;28;20205;-63
2022/05/17 11:17:51;;;;;;;8.43;2.08;;;;;;;;;;5017451;28;20049;-63
2022/05/17 11:20:17;;;;;;;8.05;2.20;;;;;;;;;;5012242;28;20401;-63
2022/05/17 11:22:48;;;;;;;9.93;2.67;;;;;;;;;;5011529;28;20497;-63
2022/05/17 11:25:23;;;;;;;10.15;2.70;;;;;;;;;;5012027;28;20453;-63
2022/05/17 11:27:59;;;;;;;8.00;2.00;;;;;;;;;;5011450;28;20086;-63
2022/05/17 11:30:28;;;;;;;9.05;2.00;;;;;;;;;;5010870;28;20164;-62
2022/05/17 11:33:09;;;;;;;7.53;1.67;;;;;;;;;;5011709;28;21743;-62
2022/05/17 11:35:36;;;;;;;8.65;1.80;;;;;;;;;;4992483;28;20188;-62
2022/05/17 11:38:05;;;;;;;11.50;1.98;;;;;;;;;;4993174;28;20466;-62
2022/05/17 11:40:43;;;;;;;6.63;1.90;;;;;;;;;;4991695;28;20042;-62
2022/05/17 11:45:57;;;;;;;8.57;2.10;;;;;;;;;;5010701;28;20053;-62
2022/05/17 11:48:42;;;;;;;8.88;2.13;;;;;;;;;;5010567;28;20095;-62
2022/05/17 11:51:09;;;;;;;7.00;1.60;;;;;;;;;;5011446;28;20509;-62
2022/05/17 11:53:44;;;;;;;6.57;1.90;;;;;;;;;;5012251;28;20425;-62
2022/05/17 11:56:12;;;;;;;6.72;2.33;;;;;;;;;;5010583;28;20037;-62
2022/05/17 11:58:38;;;;;;;7.03;1.80;;;;;;;;;;5009759;28;20062;-62
2022/05/17 12:01:24;;;;;;;6.63;1.83;;;;;;;;;;5012430;28;20077;-62
2022/05/17 12:03:52;;;;;;;6.80;1.88;;;;;;;;;;5011071;28;20072;-62
2022/05/17 12:06:31;;;;;;;8.27;2.08;;;;;;;;;;5011679;28;20238;-62
2022/05/17 12:08:57;;;;;;;5.68;1.60;;;;;;;;;;4983718;28;20132;-62
2022/05/17 12:11:32;;;;;;;6.70;1.63;;;;;;;;;;5003250;28;20045;-62
2022/05/17 12:14:08;;;;;;;7.65;1.98;;;;;;;;;;4993461;28;20047;-62
2022/05/17 12:16:35;;;;;;;8.30;1.92;;;;;;;;;;4997643;28;20038;-62
2022/05/17 12:19:06;;;;;;;7.75;1.90;;;;;;;;;;4996691;28;20050;-62
2022/05/17 12:21:43;;;;;;;5.63;1.33;;;;;;;;;;4996338;28;20410;-62
2022/05/17 12:24:19;;;;;;;6.07;1.40;;;;;;;;;;4996326;28;20121;-62
2022/05/17 12:26:52;;;;;;;5.80;1.50;;;;;;;;;;4995451;28;20050;-62
2022/05/17 12:32:19;;;;;;;6.32;1.95;;;;;;;;;;4995136;28;20046;-62
2022/05/17 12:34:50;;;;;;;8.57;1.75;;;;;;;;;;5009213;28;20377;-62
2022/05/17 12:37:17;;;;;;;6.70;1.70;;;;;;;;;;5015841;28;20054;-62
2022/05/17 12:45:19;;;;;;;7.50;2.08;;;;;;;;;;5018126;28;20136;-62
2022/05/17 12:47:50;;;;;;;8.57;1.80;;;;;;;;;;4996885;28;20092;-62
2022/05/17 12:50:35;;;;;;;7.13;1.85;;;;;;;;;;5009538;28;20412;-62
2022/05/17 12:53:02;;;;;;;9.50;1.85;;;;;;;;;;5014380;28;20046;-62
2022/05/17 12:55:29;;;;;;;9.52;2.58;;;;;;;;;;5014874;28;20037;-62
2022/05/17 12:57:56;;;;;;;10.50;2.38;;;;;;;;;;5013913;28;20409;-61
2022/05/17 13:00:23;;;;;;;6.60;2.08;;;;;;;;;;5013523;28;20034;-62
2022/05/17 13:02:51;;;;;;;6.35;2.00;;;;;;;;;;5015625;28;20417;-61
2022/05/17 13:05:37;;;;;;;8.90;1.83;;;;;;;;;;5013914;28;20042;-62
2022/05/17 13:08:09;;;;;;;8.27;1.95;;;;;;;;;;4998099;28;20061;-62
2022/05/17 13:10:36;;;;;;;8.05;1.70;;;;;;;;;;5014353;28;20390;-62
2022/05/17 13:13:17;;;;;;;7.57;1.95;;;;;;;;;;5015339;28;20606;-62
2022/05/17 13:15:44;;;;;;;8.65;2.40;;;;;;;;;;4996013;28;20049;-62
2022/05/17 13:18:12;;;;;;;10.00;2.22;;;;;;;;;;5013757;28;20132;-62
2022/05/17 13:20:39;;;;;;;6.70;2.13;;;;;;;;;;5015421;28;20042;-62
2022/05/17 13:23:06;;;;;;;7.00;1.88;;;;;;;;;;5012505;28;20389;-62
2022/05/17 13:25:37;;;;;;;8.73;2.15;;;;;;;;;;5013908;28;20045;-62
2022/05/17 13:28:03;;;;;;;7.10;1.83;;;;;;;;;;5015125;28;20037;-62
2022/05/17 13:30:33;;;;;;;9.75;2.35;;;;;;;;;;5015169;28;20127;-62
2022/05/17 13:33:01;;;;;;;7.78;2.00;;;;;;;;;;5015563;28;20057;-62
2022/05/17 13:35:30;;;;;;;9.63;2.40;;;;;;;;;;5011883;28;20058;-62
2022/05/17 13:38:01;;;;;;;9.95;2.20;;;;;;;;;;5015343;28;20092;-61
2022/05/17 13:40:38;;;;;;;10.60;2.20;;;;;;;;;;5016291;28;20105;-62
2022/05/17 13:43:23;;;;;;;10.70;1.80;;;;;;;;;;5012210;28;20042;-62
2022/05/17 13:45:57;;;;;;;7.47;1.95;;;;;;;;;;5014013;28;20415;-62
2022/05/17 13:48:24;;;;;;;8.82;2.63;;;;;;;;;;5013499;28;20177;-62
2022/05/17 13:50:58;;;;;;;9.50;2.22;;;;;;;;;;5012159;28;20439;-61
2022/05/17 13:53:26;;;;;;;8.02;2.38;;;;;;;;;;5012828;28;20038;-62
2022/05/17 13:55:52;;;;;;;10.55;2.28;;;;;;;;;;5012116;28;20437;-62
2022/05/17 13:58:21;;;;;;;13.48;2.33;;;;;;;;;;5014322;28;20052;-62
2022/05/17 14:01:00;;;;;;;21.95;2.92;;;;;;;;;;5015270;28;20401;-62
2022/05/17 14:03:27;;;;;;;8.52;1.95;;;;;;;;;;5014714;28;20204;-62
2022/05/17 14:05:57;;;;;;;7.22;1.90;;;;;;;;;;5012760;28;20042;-62
2022/05/17 14:14:01;;;;;;;8.02;2.17;;;;;;;;;;5012549;28;20270;-62
2022/05/17 14:16:31;;;;;;;10.32;2.25;;;;;;;;;;5015858;28;20132;-61
2022/05/17 14:18:58;;;;;;;7.95;1.85;;;;;;;;;;5000757;28;20049;-62
2022/05/17 14:21:25;;;;;;;11.68;2.50;;;;;;;;;;5015113;28;20607;-62
2022/05/17 14:23:52;;;;;;;14.13;3.45;;;;;;;;;;5006831;28;20054;-62
2022/05/17 14:26:19;;;;;;;11.65;2.80;;;;;;;;;;5012061;28;20238;-62
2022/05/17 14:28:47;;;;;;;10.45;2.22;;;;;;;;;;5015041;28;20141;-61
2022/05/17 14:31:16;;;;;;;11.13;2.40;;;;;;;;;;5005263;28;20037;-61
2022/05/17 14:33:43;;;;;;;13.90;3.28;;;;;;;;;;4997808;28;20164;-62
2022/05/17 14:36:13;;;;;;;8.80;2.10;;;;;;;;;;5015592;28;20571;-61
2022/05/17 14:38:39;;;;;;;11.10;2.35;;;;;;;;;;5013177;28;20049;-61
2022/05/17 14:41:05;;;;;;;10.25;3.10;;;;;;;;;;5015408;28;20541;-62
2022/05/17 14:43:31;;;;;;;9.52;2.33;;;;;;;;;;5012289;28;20378;-61
2022/05/17 14:45:58;;;;;;;11.38;2.85;;;;;;;;;;5012848;28;20094;-61
2022/05/17 14:48:26;;;;;;;10.60;2.80;;;;;;;;;;4995126;28;20401;-62
2022/05/17 14:50:53;;;;;;;9.77;2.55;;;;;;;;;;5016780;28;20067;-62
2022/05/17 14:53:19;;;;;;;12.90;2.58;;;;;;;;;;5000461;28;20497;-61
2022/05/17 14:55:45;;;;;;;11.90;2.60;;;;;;;;;;5015681;28;20041;-61
2022/05/17 14:58:12;;;;;;;11.60;2.13;;;;;;;;;;5011878;28;20081;-61
2022/05/17 15:00:39;;;;;;;11.30;2.55;;;;;;;;;;5015777;28;20115;-62
2022/05/17 15:03:11;;;;;;;12.77;2.97;;;;;;;;;;5013014;28;20053;-62
2022/05/17 15:05:38;;;;;;;11.43;2.70;;;;;;;;;;5013653;28;20050;-61
2022/05/17 15:08:09;;;;;;;13.25;2.55;;;;;;;;;;5014106;28;20041;-62